sensor_id;sensor_type;location;lat;lon;timestamp;P1;durP1;ratioP1;P2;durP2;ratioP2
16228;SDS011;8222;51.462;12.630;2023-02-04T00:01:57;1.17;;;0.82;;
16228;SDS011;8222;51.462;12.630;2023-02-04T00:04:22;2.15;;;1.02;;
16228;SDS011;8222;51.462;12.630;2023-02-04T00:06:48;0.80;;;0.80;;
16228;SDS011;8222;51.462;12.630;2023-02-04T00:09:13;2.20;;;0.90;;
16228;SDS011;8222;51.462;12.630;2023-02-04T00:11:40;1.00;;;0.80;;
16228;SDS011;8222;51.462;12.630;2023-02-04T00:14:06;0.87;;;0.80;;
16228;SDS011;8222;51.462;12.630;2023-02-04T00:16:31;1.70;;;0.80;;
16228;SDS011;8222;51.462;12.630;2023-02-04T00:18:57;2.50;;;0.98;;
16228;SDS011;8222;51.462;12.630;2023-02-04T00:21:23;1.08;;;1.00;;
16228;SDS011;8222;51.462;12.630;2023-02-04T00:23:51;1.02;;;0.90;;
16228;SDS011;8222;51.462;12.630;2023-02-04T00:26:16;3.90;;;1.17;;
16228;SDS011;8222;51.462;12.630;2023-02-04T00:28:42;0.70;;;0.70;;
16228;SDS011;8222;51.462;12.630;2023-02-04T00:31:10;0.50;;;0.50;;
16228;SDS011;8222;51.462;12.630;2023-02-04T00:33:35;0.93;;;0.90;;
16228;SDS011;8222;51.462;12.630;2023-02-04T00:36:01;0.77;;;0.65;;
16228;SDS011;8222;51.462;12.630;2023-02-04T00:38:31;1.52;;;0.98;;
16228;SDS011;8222;51.462;12.630;2023-02-04T00:40:56;1.02;;;0.73;;
16228;SDS011;8222;51.462;12.630;2023-02-04T00:43:22;1.45;;;0.70;;
16228;SDS011;8222;51.462;12.630;2023-02-04T00:45:49;1.10;;;0.80;;
16228;SDS011;8222;51.462;12.630;2023-02-04T00:48:15;1.00;;;0.60;;
16228;SDS011;8222;51.462;12.630;2023-02-04T00:50:41;0.83;;;0.77;;
16228;SDS011;8222;51.462;12.630;2023-02-04T00:53:09;1.40;;;0.98;;
16228;SDS011;8222;51.462;12.630;2023-02-04T00:55:34;0.80;;;0.70;;
16228;SDS011;8222;51.462;12.630;2023-02-04T00:58:00;1.52;;;0.70;;
16228;SDS011;8222;51.462;12.630;2023-02-04T01:00:25;1.53;;;1.27;;
16228;SDS011;8222;51.462;12.630;2023-02-04T01:02:53;2.50;;;0.70;;
16228;SDS011;8222;51.462;12.630;2023-02-04T01:05:19;1.30;;;0.93;;
16228;SDS011;8222;51.462;12.630;2023-02-04T01:07:44;1.80;;;0.88;;
16228;SDS011;8222;51.462;12.630;2023-02-04T01:10:10;1.90;;;0.90;;
16228;SDS011;8222;51.462;12.630;2023-02-04T01:12:36;3.43;;;1.20;;
16228;SDS011;8222;51.462;12.630;2023-02-04T01:15:02;2.10;;;0.95;;
16228;SDS011;8222;51.462;12.630;2023-02-04T01:17:28;1.15;;;0.80;;
16228;SDS011;8222;51.462;12.630;2023-02-04T01:19:57;1.60;;;1.10;;
16228;SDS011;8222;51.462;12.630;2023-02-04T01:22:23;1.20;;;1.00;;
16228;SDS011;8222;51.462;12.630;2023-02-04T01:24:49;1.73;;;1.03;;
16228;SDS011;8222;51.462;12.630;2023-02-04T01:27:14;0.83;;;0.83;;
16228;SDS011;8222;51.462;12.630;2023-02-04T01:29:40;2.00;;;1.00;;
16228;SDS011;8222;51.462;12.630;2023-02-04T01:32:06;2.67;;;0.83;;
16228;SDS011;8222;51.462;12.630;2023-02-04T01:34:33;0.80;;;0.80;;
16228;SDS011;8222;51.462;12.630;2023-02-04T01:36:59;1.53;;;1.03;;
16228;SDS011;8222;51.462;12.630;2023-02-04T01:39:24;1.80;;;1.40;;
16228;SDS011;8222;51.462;12.630;2023-02-04T01:41:50;0.88;;;0.80;;
16228;SDS011;8222;51.462;12.630;2023-02-04T01:44:16;1.10;;;1.00;;
16228;SDS011;8222;51.462;12.630;2023-02-04T01:46:43;3.17;;;1.33;;
16228;SDS011;8222;51.462;12.630;2023-02-04T01:49:09;1.73;;;1.10;;
16228;SDS011;8222;51.462;12.630;2023-02-04T01:51:35;1.45;;;1.05;;
16228;SDS011;8222;51.462;12.630;2023-02-04T01:54:05;0.93;;;0.90;;
16228;SDS011;8222;51.462;12.630;2023-02-04T01:56:35;1.33;;;1.00;;
16228;SDS011;8222;51.462;12.630;2023-02-04T01:59:01;1.92;;;1.00;;
16228;SDS011;8222;51.462;12.630;2023-02-04T02:01:37;1.00;;;0.90;;
16228;SDS011;8222;51.462;12.630;2023-02-04T02:04:08;1.52;;;0.82;;
16228;SDS011;8222;51.462;12.630;2023-02-04T02:06:38;0.80;;;0.70;;
16228;SDS011;8222;51.462;12.630;2023-02-04T02:09:11;2.17;;;1.00;;
16228;SDS011;8222;51.462;12.630;2023-02-04T02:11:37;1.17;;;0.90;;
16228;SDS011;8222;51.462;12.630;2023-02-04T02:14:03;1.33;;;0.90;;
16228;SDS011;8222;51.462;12.630;2023-02-04T02:16:30;0.70;;;0.70;;
16228;SDS011;8222;51.462;12.630;2023-02-04T02:18:56;1.45;;;0.93;;
16228;SDS011;8222;51.462;12.630;2023-02-04T02:21:34;1.40;;;0.90;;
16228;SDS011;8222;51.462;12.630;2023-02-04T02:24:23;3.10;;;1.10;;
16228;SDS011;8222;51.462;12.630;2023-02-04T02:26:52;1.00;;;0.90;;
16228;SDS011;8222;51.462;12.630;2023-02-04T02:29:19;0.90;;;0.90;;
16228;SDS011;8222;51.462;12.630;2023-02-04T02:31:45;1.25;;;0.95;;
16228;SDS011;8222;51.462;12.630;2023-02-04T02:34:13;2.10;;;1.02;;
16228;SDS011;8222;51.462;12.630;2023-02-04T02:36:38;1.13;;;0.97;;
16228;SDS011;8222;51.462;12.630;2023-02-04T02:39:04;2.50;;;1.05;;
16228;SDS011;8222;51.462;12.630;2023-02-04T02:41:33;1.10;;;1.00;;
16228;SDS011;8222;51.462;12.630;2023-02-04T02:43:59;1.52;;;0.90;;
16228;SDS011;8222;51.462;12.630;2023-02-04T02:46:25;0.95;;;0.77;;
16228;SDS011;8222;51.462;12.630;2023-02-04T02:48:53;1.10;;;1.00;;
16228;SDS011;8222;51.462;12.630;2023-02-04T02:51:19;0.80;;;0.80;;
16228;SDS011;8222;51.462;12.630;2023-02-04T02:53:45;1.65;;;1.10;;
16228;SDS011;8222;51.462;12.630;2023-02-04T02:56:13;0.90;;;0.85;;
16228;SDS011;8222;51.462;12.630;2023-02-04T02:58:39;1.43;;;1.10;;
16228;SDS011;8222;51.462;12.630;2023-02-04T03:01:06;1.67;;;0.90;;
16228;SDS011;8222;51.462;12.630;2023-02-04T03:03:34;2.20;;;1.00;;
16228;SDS011;8222;51.462;12.630;2023-02-04T03:06:10;1.05;;;0.75;;
16228;SDS011;8222;51.462;12.630;2023-02-04T03:08:41;1.23;;;0.90;;
16228;SDS011;8222;51.462;12.630;2023-02-04T03:11:09;1.58;;;0.95;;
16228;SDS011;8222;51.462;12.630;2023-02-04T03:13:35;0.93;;;0.90;;
16228;SDS011;8222;51.462;12.630;2023-02-04T03:16:02;1.30;;;0.93;;
16228;SDS011;8222;51.462;12.630;2023-02-04T03:18:30;1.05;;;0.95;;
16228;SDS011;8222;51.462;12.630;2023-02-04T03:20:56;1.93;;;1.10;;
16228;SDS011;8222;51.462;12.630;2023-02-04T03:23:23;0.80;;;0.80;;
16228;SDS011;8222;51.462;12.630;2023-02-04T03:25:49;1.45;;;0.93;;
16228;SDS011;8222;51.462;12.630;2023-02-04T03:28:15;3.13;;;1.23;;
16228;SDS011;8222;51.462;12.630;2023-02-04T03:30:43;1.10;;;0.90;;
16228;SDS011;8222;51.462;12.630;2023-02-04T03:33:20;2.47;;;0.90;;
16228;SDS011;8222;51.462;12.630;2023-02-04T03:35:55;1.70;;;1.08;;
16228;SDS011;8222;51.462;12.630;2023-02-04T03:38:24;1.73;;;0.75;;
16228;SDS011;8222;51.462;12.630;2023-02-04T03:40:49;1.48;;;0.90;;
16228;SDS011;8222;51.462;12.630;2023-02-04T03:43:17;0.70;;;0.70;;
16228;SDS011;8222;51.462;12.630;2023-02-04T03:45:43;1.30;;;1.00;;
16228;SDS011;8222;51.462;12.630;2023-02-04T03:48:08;2.13;;;0.83;;
16228;SDS011;8222;51.462;12.630;2023-02-04T03:50:34;1.20;;;1.10;;
16228;SDS011;8222;51.462;12.630;2023-02-04T03:53:00;0.87;;;0.80;;
16228;SDS011;8222;51.462;12.630;2023-02-04T03:55:25;1.70;;;1.00;;
16228;SDS011;8222;51.462;12.630;2023-02-04T03:57:51;0.77;;;0.70;;
16228;SDS011;8222;51.462;12.630;2023-02-04T04:00:17;1.38;;;0.70;;
16228;SDS011;8222;51.462;12.630;2023-02-04T04:02:43;0.70;;;0.70;;
16228;SDS011;8222;51.462;12.630;2023-02-04T04:05:09;1.10;;;0.90;;
16228;SDS011;8222;51.462;12.630;2023-02-04T04:07:35;1.25;;;0.90;;
16228;SDS011;8222;51.462;12.630;2023-02-04T04:10:03;2.10;;;1.08;;
16228;SDS011;8222;51.462;12.630;2023-02-04T04:12:29;1.20;;;0.70;;
16228;SDS011;8222;51.462;12.630;2023-02-04T04:14:54;1.10;;;0.82;;
16228;SDS011;8222;51.462;12.630;2023-02-04T04:17:20;1.90;;;0.90;;
16228;SDS011;8222;51.462;12.630;2023-02-04T04:19:46;0.90;;;0.70;;
16228;SDS011;8222;51.462;12.630;2023-02-04T04:22:14;0.50;;;0.50;;
16228;SDS011;8222;51.462;12.630;2023-02-04T04:24:39;1.90;;;0.90;;
16228;SDS011;8222;51.462;12.630;2023-02-04T04:27:06;1.00;;;0.90;;
16228;SDS011;8222;51.462;12.630;2023-02-04T04:29:32;0.50;;;0.50;;
16228;SDS011;8222;51.462;12.630;2023-02-04T04:31:58;0.90;;;0.88;;
16228;SDS011;8222;51.462;12.630;2023-02-04T04:34:23;0.80;;;0.70;;
16228;SDS011;8222;51.462;12.630;2023-02-04T04:36:49;0.80;;;0.80;;
16228;SDS011;8222;51.462;12.630;2023-02-04T04:39:15;1.97;;;1.20;;
16228;SDS011;8222;51.462;12.630;2023-02-04T04:41:42;1.02;;;0.93;;
16228;SDS011;8222;51.462;12.630;2023-02-04T04:44:08;0.73;;;0.63;;
16228;SDS011;8222;51.462;12.630;2023-02-04T04:46:34;1.50;;;0.90;;
16228;SDS011;8222;51.462;12.630;2023-02-04T04:48:59;2.38;;;1.10;;
16228;SDS011;8222;51.462;12.630;2023-02-04T04:51:25;1.10;;;1.00;;
16228;SDS011;8222;51.462;12.630;2023-02-04T04:53:51;2.40;;;1.00;;
16228;SDS011;8222;51.462;12.630;2023-02-04T04:56:16;1.50;;;1.17;;
16228;SDS011;8222;51.462;12.630;2023-02-04T04:58:43;1.00;;;0.80;;
16228;SDS011;8222;51.462;12.630;2023-02-04T05:01:09;1.83;;;1.00;;
16228;SDS011;8222;51.462;12.630;2023-02-04T05:03:34;1.55;;;0.90;;
16228;SDS011;8222;51.462;12.630;2023-02-04T05:06:00;0.70;;;0.70;;
16228;SDS011;8222;51.462;12.630;2023-02-04T05:08:27;2.90;;;1.20;;
16228;SDS011;8222;51.462;12.630;2023-02-04T05:10:53;1.10;;;1.00;;
16228;SDS011;8222;51.462;12.630;2023-02-04T05:13:19;2.60;;;1.20;;
16228;SDS011;8222;51.462;12.630;2023-02-04T05:15:44;1.30;;;1.20;;
16228;SDS011;8222;51.462;12.630;2023-02-04T05:18:13;2.20;;;0.90;;
16228;SDS011;8222;51.462;12.630;2023-02-04T05:20:38;2.05;;;1.00;;
16228;SDS011;8222;51.462;12.630;2023-02-04T05:23:04;1.00;;;0.90;;
16228;SDS011;8222;51.462;12.630;2023-02-04T05:25:32;1.90;;;0.80;;
16228;SDS011;8222;51.462;12.630;2023-02-04T05:27:57;3.25;;;1.10;;
16228;SDS011;8222;51.462;12.630;2023-02-04T05:30:23;2.07;;;0.80;;
16228;SDS011;8222;51.462;12.630;2023-02-04T05:32:49;2.10;;;1.07;;
16228;SDS011;8222;51.462;12.630;2023-02-04T05:35:14;1.85;;;0.93;;
16228;SDS011;8222;51.462;12.630;2023-02-04T05:37:42;1.75;;;0.95;;
16228;SDS011;8222;51.462;12.630;2023-02-04T05:40:08;2.35;;;1.08;;
16228;SDS011;8222;51.462;12.630;2023-02-04T05:42:34;1.55;;;0.90;;
16228;SDS011;8222;51.462;12.630;2023-02-04T05:45:01;2.15;;;1.17;;
16228;SDS011;8222;51.462;12.630;2023-02-04T05:47:27;2.30;;;1.50;;
16228;SDS011;8222;51.462;12.630;2023-02-04T05:49:53;2.20;;;1.20;;
16228;SDS011;8222;51.462;12.630;2023-02-04T05:52:21;1.50;;;1.05;;
16228;SDS011;8222;51.462;12.630;2023-02-04T05:54:46;1.00;;;0.90;;
16228;SDS011;8222;51.462;12.630;2023-02-04T05:57:12;1.07;;;0.90;;
16228;SDS011;8222;51.462;12.630;2023-02-04T05:59:40;1.40;;;1.30;;
16228;SDS011;8222;51.462;12.630;2023-02-04T06:02:05;1.05;;;0.85;;
16228;SDS011;8222;51.462;12.630;2023-02-04T06:04:31;2.10;;;1.10;;
16228;SDS011;8222;51.462;12.630;2023-02-04T06:06:59;1.10;;;1.00;;
16228;SDS011;8222;51.462;12.630;2023-02-04T06:09:25;2.15;;;1.15;;
16228;SDS011;8222;51.462;12.630;2023-02-04T06:11:53;1.97;;;1.13;;
16228;SDS011;8222;51.462;12.630;2023-02-04T06:14:18;2.15;;;1.00;;
16228;SDS011;8222;51.462;12.630;2023-02-04T06:16:44;3.60;;;1.00;;
16228;SDS011;8222;51.462;12.630;2023-02-04T06:19:09;0.70;;;0.70;;
16228;SDS011;8222;51.462;12.630;2023-02-04T06:21:35;1.40;;;1.00;;
16228;SDS011;8222;51.462;12.630;2023-02-04T06:24:04;0.80;;;0.80;;
16228;SDS011;8222;51.462;12.630;2023-02-04T06:26:30;1.38;;;1.00;;
16228;SDS011;8222;51.462;12.630;2023-02-04T06:28:55;2.10;;;1.00;;
16228;SDS011;8222;51.462;12.630;2023-02-04T06:31:21;1.33;;;1.00;;
16228;SDS011;8222;51.462;12.630;2023-02-04T06:33:49;2.15;;;1.30;;
16228;SDS011;8222;51.462;12.630;2023-02-04T06:36:14;0.70;;;0.70;;
16228;SDS011;8222;51.462;12.630;2023-02-04T06:38:40;1.57;;;0.87;;
16228;SDS011;8222;51.462;12.630;2023-02-04T06:41:07;2.38;;;0.85;;
16228;SDS011;8222;51.462;12.630;2023-02-04T06:43:33;1.55;;;0.75;;
16228;SDS011;8222;51.462;12.630;2023-02-04T06:45:59;0.80;;;0.50;;
16228;SDS011;8222;51.462;12.630;2023-02-04T06:48:25;1.17;;;1.03;;
16228;SDS011;8222;51.462;12.630;2023-02-04T06:50:50;1.88;;;0.90;;
16228;SDS011;8222;51.462;12.630;2023-02-04T06:53:16;1.50;;;0.87;;
16228;SDS011;8222;51.462;12.630;2023-02-04T06:55:43;1.20;;;0.82;;
16228;SDS011;8222;51.462;12.630;2023-02-04T06:58:09;0.90;;;0.90;;
16228;SDS011;8222;51.462;12.630;2023-02-04T07:00:34;1.80;;;1.05;;
16228;SDS011;8222;51.462;12.630;2023-02-04T07:03:00;0.90;;;0.70;;
16228;SDS011;8222;51.462;12.630;2023-02-04T07:05:26;1.97;;;0.80;;
16228;SDS011;8222;51.462;12.630;2023-02-04T07:07:51;1.10;;;0.77;;
16228;SDS011;8222;51.462;12.630;2023-02-04T07:10:19;1.30;;;0.82;;
16228;SDS011;8222;51.462;12.630;2023-02-04T07:12:45;0.82;;;0.80;;
16228;SDS011;8222;51.462;12.630;2023-02-04T07:15:10;1.65;;;1.17;;
16228;SDS011;8222;51.462;12.630;2023-02-04T07:17:36;2.88;;;1.50;;
16228;SDS011;8222;51.462;12.630;2023-02-04T07:20:02;2.00;;;1.77;;
16228;SDS011;8222;51.462;12.630;2023-02-04T07:22:30;1.65;;;1.25;;
16228;SDS011;8222;51.462;12.630;2023-02-04T07:24:55;1.23;;;1.02;;
16228;SDS011;8222;51.462;12.630;2023-02-04T07:27:21;1.65;;;1.30;;
16228;SDS011;8222;51.462;12.630;2023-02-04T07:29:48;1.45;;;0.90;;
16228;SDS011;8222;51.462;12.630;2023-02-04T07:32:14;2.10;;;1.10;;
16228;SDS011;8222;51.462;12.630;2023-02-04T07:34:39;2.10;;;1.10;;
16228;SDS011;8222;51.462;12.630;2023-02-04T07:37:05;1.20;;;1.10;;
16228;SDS011;8222;51.462;12.630;2023-02-04T07:39:31;2.70;;;1.33;;
16228;SDS011;8222;51.462;12.630;2023-02-04T07:41:58;1.83;;;1.15;;
16228;SDS011;8222;51.462;12.630;2023-02-04T07:44:26;1.33;;;1.17;;
16228;SDS011;8222;51.462;12.630;2023-02-04T07:46:53;1.58;;;1.40;;
16228;SDS011;8222;51.462;12.630;2023-02-04T07:49:21;1.70;;;1.20;;
16228;SDS011;8222;51.462;12.630;2023-02-04T07:51:47;2.22;;;1.35;;
16228;SDS011;8222;51.462;12.630;2023-02-04T07:54:12;2.17;;;1.27;;
16228;SDS011;8222;51.462;12.630;2023-02-04T07:56:38;1.95;;;1.40;;
16228;SDS011;8222;51.462;12.630;2023-02-04T07:59:04;1.90;;;1.20;;
16228;SDS011;8222;51.462;12.630;2023-02-04T08:01:29;1.20;;;1.10;;
16228;SDS011;8222;51.462;12.630;2023-02-04T08:03:55;1.10;;;1.03;;
16228;SDS011;8222;51.462;12.630;2023-02-04T08:06:21;1.17;;;1.00;;
16228;SDS011;8222;51.462;12.630;2023-02-04T08:08:47;1.40;;;1.30;;
16228;SDS011;8222;51.462;12.630;2023-02-04T08:11:12;1.92;;;1.13;;
16228;SDS011;8222;51.462;12.630;2023-02-04T08:13:38;2.58;;;1.40;;
16228;SDS011;8222;51.462;12.630;2023-02-04T08:16:03;2.03;;;1.48;;
16228;SDS011;8222;51.462;12.630;2023-02-04T08:18:29;1.50;;;1.27;;
16228;SDS011;8222;51.462;12.630;2023-02-04T08:20:55;1.97;;;1.27;;
16228;SDS011;8222;51.462;12.630;2023-02-04T08:23:21;1.20;;;1.03;;
16228;SDS011;8222;51.462;12.630;2023-02-04T08:25:48;2.00;;;1.20;;
16228;SDS011;8222;51.462;12.630;2023-02-04T08:28:14;2.33;;;1.30;;
16228;SDS011;8222;51.462;12.630;2023-02-04T08:30:39;1.03;;;1.00;;
16228;SDS011;8222;51.462;12.630;2023-02-04T08:33:05;3.20;;;1.40;;
16228;SDS011;8222;51.462;12.630;2023-02-04T08:35:31;1.63;;;1.43;;
16228;SDS011;8222;51.462;12.630;2023-02-04T08:37:56;3.63;;;1.88;;
16228;SDS011;8222;51.462;12.630;2023-02-04T08:40:22;2.53;;;1.33;;
16228;SDS011;8222;51.462;12.630;2023-02-04T08:42:49;1.30;;;1.10;;
16228;SDS011;8222;51.462;12.630;2023-02-04T08:45:15;2.25;;;1.40;;
16228;SDS011;8222;51.462;12.630;2023-02-04T08:47:41;2.40;;;1.37;;
16228;SDS011;8222;51.462;12.630;2023-02-04T08:50:07;3.78;;;1.80;;
16228;SDS011;8222;51.462;12.630;2023-02-04T08:52:34;3.25;;;1.60;;
16228;SDS011;8222;51.462;12.630;2023-02-04T08:55:00;1.63;;;1.50;;
16228;SDS011;8222;51.462;12.630;2023-02-04T08:57:26;1.95;;;1.50;;
16228;SDS011;8222;51.462;12.630;2023-02-04T08:59:52;3.20;;;1.35;;
16228;SDS011;8222;51.462;12.630;2023-02-04T09:02:17;2.10;;;1.17;;
16228;SDS011;8222;51.462;12.630;2023-02-04T09:04:47;1.90;;;1.35;;
16228;SDS011;8222;51.462;12.630;2023-02-04T09:07:12;3.47;;;1.33;;
16228;SDS011;8222;51.462;12.630;2023-02-04T09:09:38;1.50;;;1.40;;
16228;SDS011;8222;51.462;12.630;2023-02-04T09:12:04;2.60;;;1.40;;
16228;SDS011;8222;51.462;12.630;2023-02-04T09:14:29;1.30;;;1.20;;
16228;SDS011;8222;51.462;12.630;2023-02-04T09:16:55;3.10;;;1.30;;
16228;SDS011;8222;51.462;12.630;2023-02-04T09:19:22;1.65;;;1.33;;
16228;SDS011;8222;51.462;12.630;2023-02-04T09:21:50;2.08;;;1.20;;
16228;SDS011;8222;51.462;12.630;2023-02-04T09:24:17;1.63;;;1.17;;
16228;SDS011;8222;51.462;12.630;2023-02-04T09:26:43;2.03;;;1.23;;
16228;SDS011;8222;51.462;12.630;2023-02-04T09:29:09;3.22;;;1.30;;
16228;SDS011;8222;51.462;12.630;2023-02-04T09:31:36;2.60;;;1.30;;
16228;SDS011;8222;51.462;12.630;2023-02-04T09:34:03;2.38;;;1.20;;
16228;SDS011;8222;51.462;12.630;2023-02-04T09:36:28;2.97;;;2.28;;
16228;SDS011;8222;51.462;12.630;2023-02-04T09:38:54;2.40;;;1.77;;
16228;SDS011;8222;51.462;12.630;2023-02-04T09:41:22;5.90;;;3.00;;
16228;SDS011;8222;51.462;12.630;2023-02-04T09:43:47;3.00;;;1.30;;
16228;SDS011;8222;51.462;12.630;2023-02-04T09:46:18;2.15;;;1.40;;
16228;SDS011;8222;51.462;12.630;2023-02-04T09:48:46;1.85;;;1.50;;
16228;SDS011;8222;51.462;12.630;2023-02-04T09:51:15;2.60;;;1.23;;
16228;SDS011;8222;51.462;12.630;2023-02-04T09:53:43;3.03;;;1.40;;
16228;SDS011;8222;51.462;12.630;2023-02-04T09:56:09;1.75;;;1.15;;
16228;SDS011;8222;51.462;12.630;2023-02-04T09:58:37;1.58;;;1.27;;
16228;SDS011;8222;51.462;12.630;2023-02-04T10:01:15;2.90;;;1.25;;
16228;SDS011;8222;51.462;12.630;2023-02-04T10:03:43;1.67;;;1.05;;
16228;SDS011;8222;51.462;12.630;2023-02-04T10:06:13;1.70;;;1.10;;
16228;SDS011;8222;51.462;12.630;2023-02-04T10:08:40;2.40;;;1.42;;
16228;SDS011;8222;51.462;12.630;2023-02-04T10:11:07;3.15;;;1.67;;
16228;SDS011;8222;51.462;12.630;2023-02-04T10:13:36;1.88;;;1.20;;
16228;SDS011;8222;51.462;12.630;2023-02-04T10:16:08;3.03;;;1.35;;
16228;SDS011;8222;51.462;12.630;2023-02-04T10:18:38;1.63;;;1.35;;
16228;SDS011;8222;51.462;12.630;2023-02-04T10:21:17;3.55;;;1.45;;
16228;SDS011;8222;51.462;12.630;2023-02-04T10:23:52;1.45;;;1.20;;
16228;SDS011;8222;51.462;12.630;2023-02-04T10:26:24;1.70;;;1.13;;
16228;SDS011;8222;51.462;12.630;2023-02-04T10:29:05;1.80;;;1.23;;
16228;SDS011;8222;51.462;12.630;2023-02-04T10:31:37;1.67;;;1.08;;
16228;SDS011;8222;51.462;12.630;2023-02-04T10:34:14;2.60;;;1.57;;
16228;SDS011;8222;51.462;12.630;2023-02-04T10:36:48;1.50;;;1.10;;
16228;SDS011;8222;51.462;12.630;2023-02-04T10:39:23;1.98;;;1.10;;
16228;SDS011;8222;51.462;12.630;2023-02-04T10:41:52;2.87;;;1.13;;
16228;SDS011;8222;51.462;12.630;2023-02-04T10:44:20;1.08;;;0.95;;
16228;SDS011;8222;51.462;12.630;2023-02-04T10:46:52;2.58;;;1.10;;
16228;SDS011;8222;51.462;12.630;2023-02-04T10:49:26;1.70;;;1.27;;
16228;SDS011;8222;51.462;12.630;2023-02-04T10:51:52;3.00;;;1.57;;
16228;SDS011;8222;51.462;12.630;2023-02-04T10:54:19;2.43;;;1.30;;
16228;SDS011;8222;51.462;12.630;2023-02-04T10:57:00;4.38;;;1.30;;
16228;SDS011;8222;51.462;12.630;2023-02-04T10:59:28;2.30;;;1.27;;
16228;SDS011;8222;51.462;12.630;2023-02-04T11:01:54;3.00;;;1.37;;
16228;SDS011;8222;51.462;12.630;2023-02-04T11:04:21;2.10;;;1.20;;
16228;SDS011;8222;51.462;12.630;2023-02-04T11:06:49;2.00;;;1.10;;
16228;SDS011;8222;51.462;12.630;2023-02-04T11:09:16;1.48;;;1.13;;
16228;SDS011;8222;51.462;12.630;2023-02-04T11:11:46;1.63;;;1.17;;
16228;SDS011;8222;51.462;12.630;2023-02-04T11:14:20;1.25;;;1.10;;
16228;SDS011;8222;51.462;12.630;2023-02-04T11:16:48;3.03;;;1.30;;
16228;SDS011;8222;51.462;12.630;2023-02-04T11:19:14;2.33;;;1.10;;
16228;SDS011;8222;51.462;12.630;2023-02-04T11:21:43;1.70;;;1.20;;
16228;SDS011;8222;51.462;12.630;2023-02-04T11:26:44;1.33;;;1.00;;
16228;SDS011;8222;51.462;12.630;2023-02-04T11:34:24;3.70;;;1.50;;
16228;SDS011;8222;51.462;12.630;2023-02-04T11:39:42;2.07;;;1.00;;
16228;SDS011;8222;51.462;12.630;2023-02-04T11:42:17;1.63;;;1.17;;
16228;SDS011;8222;51.462;12.630;2023-02-04T11:45:13;2.25;;;1.27;;
16228;SDS011;8222;51.462;12.630;2023-02-04T11:47:48;1.67;;;1.08;;
16228;SDS011;8222;51.462;12.630;2023-02-04T11:50:17;2.65;;;1.15;;
16228;SDS011;8222;51.462;12.630;2023-02-04T11:52:47;1.75;;;1.00;;
16228;SDS011;8222;51.462;12.630;2023-02-04T11:55:13;2.20;;;1.13;;
16228;SDS011;8222;51.462;12.630;2023-02-04T11:57:39;1.88;;;1.20;;
16228;SDS011;8222;51.462;12.630;2023-02-04T12:00:15;1.83;;;1.15;;
16228;SDS011;8222;51.462;12.630;2023-02-04T12:02:44;3.63;;;2.53;;
16228;SDS011;8222;51.462;12.630;2023-02-04T12:05:17;1.40;;;1.30;;
16228;SDS011;8222;51.462;12.630;2023-02-04T12:07:44;1.85;;;1.25;;
16228;SDS011;8222;51.462;12.630;2023-02-04T12:12:52;1.63;;;1.08;;
16228;SDS011;8222;51.462;12.630;2023-02-04T12:15:30;1.50;;;0.98;;
16228;SDS011;8222;51.462;12.630;2023-02-04T12:18:00;0.75;;;0.75;;
16228;SDS011;8222;51.462;12.630;2023-02-04T12:20:27;0.52;;;0.50;;
16228;SDS011;8222;51.462;12.630;2023-02-04T12:22:53;0.93;;;0.67;;
16228;SDS011;8222;51.462;12.630;2023-02-04T12:25:19;1.47;;;0.77;;
16228;SDS011;8222;51.462;12.630;2023-02-04T12:27:50;1.50;;;0.80;;
16228;SDS011;8222;51.462;12.630;2023-02-04T12:30:22;2.20;;;0.93;;
16228;SDS011;8222;51.462;12.630;2023-02-04T12:32:51;1.63;;;0.95;;
16228;SDS011;8222;51.462;12.630;2023-02-04T12:35:17;2.03;;;1.00;;
16228;SDS011;8222;51.462;12.630;2023-02-04T12:37:43;1.35;;;0.90;;
16228;SDS011;8222;51.462;12.630;2023-02-04T12:40:14;1.50;;;0.88;;
16228;SDS011;8222;51.462;12.630;2023-02-04T12:42:44;0.63;;;0.63;;
16228;SDS011;8222;51.462;12.630;2023-02-04T12:45:10;1.40;;;0.60;;
16228;SDS011;8222;51.462;12.630;2023-02-04T12:47:38;1.40;;;0.60;;
16228;SDS011;8222;51.462;12.630;2023-02-04T12:50:04;1.07;;;0.50;;
16228;SDS011;8222;51.462;12.630;2023-02-04T12:52:30;1.58;;;1.00;;
16228;SDS011;8222;51.462;12.630;2023-02-04T12:54:56;1.23;;;0.80;;
16228;SDS011;8222;51.462;12.630;2023-02-04T12:57:29;1.30;;;1.02;;
16228;SDS011;8222;51.462;12.630;2023-02-04T12:59:57;2.78;;;1.13;;
16228;SDS011;8222;51.462;12.630;2023-02-04T13:02:25;0.95;;;0.70;;
16228;SDS011;8222;51.462;12.630;2023-02-04T13:04:51;1.10;;;0.70;;
16228;SDS011;8222;51.462;12.630;2023-02-04T13:07:17;1.47;;;0.87;;
16228;SDS011;8222;51.462;12.630;2023-02-04T13:09:43;0.43;;;0.43;;
16228;SDS011;8222;51.462;12.630;2023-02-04T13:12:12;1.20;;;0.77;;
16228;SDS011;8222;51.462;12.630;2023-02-04T13:14:42;1.60;;;0.68;;
16228;SDS011;8222;51.462;12.630;2023-02-04T13:17:09;0.60;;;0.60;;
16228;SDS011;8222;51.462;12.630;2023-02-04T13:19:35;1.08;;;0.70;;
16228;SDS011;8222;51.462;12.630;2023-02-04T13:22:02;1.45;;;0.93;;
16228;SDS011;8222;51.462;12.630;2023-02-04T13:24:30;0.90;;;0.60;;
16228;SDS011;8222;51.462;12.630;2023-02-04T13:26:56;1.20;;;0.50;;
16228;SDS011;8222;51.462;12.630;2023-02-04T13:29:22;1.47;;;0.70;;
16228;SDS011;8222;51.462;12.630;2023-02-04T13:31:49;0.50;;;0.30;;
16228;SDS011;8222;51.462;12.630;2023-02-04T13:34:17;1.00;;;0.70;;
16228;SDS011;8222;51.462;12.630;2023-02-04T13:36:43;1.37;;;0.67;;
16228;SDS011;8222;51.462;12.630;2023-02-04T13:39:09;1.00;;;0.40;;
16228;SDS011;8222;51.462;12.630;2023-02-04T13:41:37;1.05;;;0.50;;
16228;SDS011;8222;51.462;12.630;2023-02-04T13:44:03;0.50;;;0.50;;
16228;SDS011;8222;51.462;12.630;2023-02-04T13:46:29;0.75;;;0.43;;
16228;SDS011;8222;51.462;12.630;2023-02-04T13:48:57;0.82;;;0.50;;
16228;SDS011;8222;51.462;12.630;2023-02-04T13:51:22;1.50;;;0.60;;
16228;SDS011;8222;51.462;12.630;2023-02-04T13:53:48;1.17;;;0.40;;
16228;SDS011;8222;51.462;12.630;2023-02-04T13:56:14;0.47;;;0.47;;
16228;SDS011;8222;51.462;12.630;2023-02-04T13:58:39;1.25;;;0.50;;
16228;SDS011;8222;51.462;12.630;2023-02-04T14:01:12;1.90;;;0.73;;
16228;SDS011;8222;51.462;12.630;2023-02-04T14:03:40;0.80;;;0.70;;
16228;SDS011;8222;51.462;12.630;2023-02-04T14:06:07;1.75;;;0.80;;
16228;SDS011;8222;51.462;12.630;2023-02-04T14:08:32;0.77;;;0.40;;
16228;SDS011;8222;51.462;12.630;2023-02-04T14:11:00;0.70;;;0.53;;
16228;SDS011;8222;51.462;12.630;2023-02-04T14:13:27;1.05;;;0.40;;
16228;SDS011;8222;51.462;12.630;2023-02-04T14:15:56;0.90;;;0.50;;
16228;SDS011;8222;51.462;12.630;2023-02-04T14:18:23;2.25;;;0.85;;
16228;SDS011;8222;51.462;12.630;2023-02-04T14:20:49;0.57;;;0.40;;
16228;SDS011;8222;51.462;12.630;2023-02-04T14:23:14;1.77;;;0.82;;
16228;SDS011;8222;51.462;12.630;2023-02-04T14:25:40;0.73;;;0.50;;
16228;SDS011;8222;51.462;12.630;2023-02-04T14:28:06;0.80;;;0.40;;
16228;SDS011;8222;51.462;12.630;2023-02-04T14:30:34;0.90;;;0.60;;
16228;SDS011;8222;51.462;12.630;2023-02-04T14:33:00;1.80;;;0.80;;
16228;SDS011;8222;51.462;12.630;2023-02-04T14:35:27;1.60;;;1.08;;
16228;SDS011;8222;51.462;12.630;2023-02-04T14:37:53;0.43;;;0.40;;
16228;SDS011;8222;51.462;12.630;2023-02-04T14:40:21;1.00;;;0.40;;
16228;SDS011;8222;51.462;12.630;2023-02-04T14:42:47;6.47;;;0.80;;
16228;SDS011;8222;51.462;12.630;2023-02-04T14:45:13;0.65;;;0.50;;
16228;SDS011;8222;51.462;12.630;2023-02-04T14:47:39;0.98;;;0.88;;
16228;SDS011;8222;51.462;12.630;2023-02-04T14:50:06;0.77;;;0.70;;
16228;SDS011;8222;51.462;12.630;2023-02-04T14:52:33;0.60;;;0.35;;
16228;SDS011;8222;51.462;12.630;2023-02-04T14:54:59;0.70;;;0.53;;
16228;SDS011;8222;51.462;12.630;2023-02-04T14:57:25;1.98;;;0.63;;
16228;SDS011;8222;51.462;12.630;2023-02-04T14:59:50;2.20;;;0.70;;
16228;SDS011;8222;51.462;12.630;2023-02-04T15:02:16;2.10;;;0.80;;